Time;durP1;ratioP1;P1;durP2;ratioP2;P2;SDS_P1;SDS_P2;PMS_P1;PMS_P2;Temp;Humidity;BMP_temperature;BMP_pressure;BME280_temperature;BME280_humidity;BME280_pressure;Samples;Min_cycle;Max_cycle;Signal;HPM_P1;HPM_P2
2023/09/20 00:00:32;;;;;;;7.20;2.40;;;;;;;16.24;85.45;100835.78;6253971;22;20341;-69
2023/09/20 00:02:58;;;;;;;8.30;2.40;;;;;;;16.30;85.02;100833.84;6278321;22;20318;-69
2023/09/20 00:05:24;;;;;;;7.60;2.67;;;;;;;16.31;84.99;100831.16;6253229;22;20022;-69
2023/09/20 00:07:54;;;;;;;7.68;2.58;;;;;;;16.25;85.50;100829.59;6277654;22;20077;-68
2023/09/20 00:10:23;;;;;;;4.93;2.38;;;;;;;16.24;85.58;100830.50;6278972;22;20011;-67
2023/09/20 00:12:49;;;;;;;7.90;2.63;;;;;;;16.24;85.63;100833.13;6278289;22;20070;-67
2023/09/20 00:15:14;;;;;;;6.30;2.47;;;;;;;16.28;85.23;100829.47;6253091;22;20031;-67
2023/09/20 00:17:40;;;;;;;7.88;2.95;;;;;;;16.19;85.85;100832.47;6278053;22;20466;-67
2023/09/20 00:20:13;;;;;;;7.95;2.90;;;;;;;16.23;85.42;100827.91;6252995;22;20043;-69
2023/09/20 00:22:50;;;;;;;7.07;2.50;;;;;;;16.16;86.17;100832.56;6278741;22;20488;-69
2023/09/20 00:25:16;;;;;;;7.82;2.90;;;;;;;16.11;86.21;100823.91;6228833;22;20011;-69
2023/09/20 00:27:43;;;;;;;7.25;2.47;;;;;;;16.07;86.45;100830.22;6278282;22;20456;-69
2023/09/20 00:30:15;;;;;;;10.50;2.70;;;;;;;16.14;86.15;100830.88;6277394;22;20075;-69
2023/09/20 00:32:44;;;;;;;8.32;2.45;;;;;;;16.10;86.36;100830.13;6273520;22;20406;-68
2023/09/20 00:35:11;;;;;;;6.35;2.45;;;;;;;16.09;86.31;100821.34;6228153;22;20007;-69
2023/09/20 00:37:41;;;;;;;7.60;2.83;;;;;;;16.08;86.31;100829.31;6278750;22;20137;-68
2023/09/20 00:40:15;;;;;;;6.70;2.63;;;;;;;16.03;87.01;100825.97;6278507;22;20003;-70
2023/09/20 00:42:41;;;;;;;8.55;2.75;;;;;;;16.03;86.94;100821.56;6254184;22;20441;-69
2023/09/20 00:45:07;;;;;;;6.53;2.40;;;;;;;16.01;86.92;100818.09;6252514;22;20027;-69
2023/09/20 00:47:33;;;;;;;8.02;2.40;;;;;;;15.95;87.51;100823.59;6251972;22;20015;-69
2023/09/20 00:49:59;;;;;;;6.05;2.63;;;;;;;15.96;87.30;100820.03;6253477;22;20349;-69
2023/09/20 00:52:27;;;;;;;7.57;2.60;;;;;;;15.83;88.30;100819.59;6227684;22;20341;-69
2023/09/20 00:54:57;;;;;;;7.35;2.67;;;;;;;15.71;89.06;100817.31;6278437;22;20011;-68
2023/09/20 00:57:25;;;;;;;7.68;2.85;;;;;;;15.66;89.60;100821.88;6253794;22;20019;-68
2023/09/20 00:59:51;;;;;;;8.45;2.35;;;;;;;15.68;89.42;100823.56;6278822;22;20013;-69
2023/09/20 01:02:18;;;;;;;9.02;2.90;;;;;;;15.68;89.50;100818.28;6226801;22;20485;-69
2023/09/20 01:04:46;;;;;;;6.90;2.72;;;;;;;15.66;89.70;100817.50;6253485;22;20097;-69
2023/09/20 01:07:12;;;;;;;8.15;2.95;;;;;;;15.68;89.38;100815.66;6277462;22;20003;-70
2023/09/20 01:09:38;;;;;;;9.88;2.90;;;;;;;15.61;90.07;100821.19;6253053;22;20007;-69
2023/09/20 01:12:05;;;;;;;6.28;2.65;;;;;;;15.61;90.13;100818.56;6252392;22;20011;-70
2023/09/20 01:14:31;;;;;;;6.63;2.83;;;;;;;15.61;90.37;100816.75;6253512;22;20064;-68
2023/09/20 01:16:56;;;;;;;6.78;2.70;;;;;;;15.62;90.04;100826.44;6277874;22;20011;-69
2023/09/20 01:19:21;;;;;;;7.50;2.60;;;;;;;15.60;90.37;100817.66;6278073;22;20160;-69
2023/09/20 01:21:47;;;;;;;7.53;2.30;;;;;;;15.51;90.86;100810.91;6227758;22;20010;-68
2023/09/20 01:24:14;;;;;;;6.40;2.47;;;;;;;15.45;90.85;100821.69;6252744;22;20100;-69
2023/09/20 01:26:42;;;;;;;4.82;2.42;;;;;;;15.42;91.87;100816.50;6277950;22;20011;-69
2023/09/20 01:29:08;;;;;;;9.25;2.42;;;;;;;15.44;91.21;100811.19;6278116;22;20148;-70
2023/09/20 01:31:33;;;;;;;6.35;2.75;;;;;;;15.40;91.92;100807.75;6250321;22;20094;-68
2023/09/20 01:33:58;;;;;;;6.15;2.78;;;;;;;15.42;91.29;100806.81;6278331;22;20011;-68
2023/09/20 01:36:24;;;;;;;6.35;2.75;;;;;;;15.35;92.02;100807.06;6252247;22;20003;-67
2023/09/20 01:38:51;;;;;;;6.22;2.40;;;;;;;15.34;92.04;100805.31;6278356;22;20014;-68
2023/09/20 01:41:18;;;;;;;6.47;2.58;;;;;;;15.35;92.17;100801.78;6277706;22;19999;-68
2023/09/20 01:43:44;;;;;;;7.68;2.63;;;;;;;15.27;92.73;100799.41;6252335;22;20007;-68
2023/09/20 01:46:10;;;;;;;8.05;2.80;;;;;;;15.25;93.14;100791.50;6277581;22;20026;-68
2023/09/20 01:48:36;;;;;;;6.90;2.60;;;;;;;15.28;92.68;100781.78;6251913;22;20058;-68
2023/09/20 01:51:02;;;;;;;6.30;2.28;;;;;;;15.22;93.33;100786.31;6252763;22;20286;-68
2023/09/20 01:53:29;;;;;;;8.73;2.80;;;;;;;15.27;93.02;100791.47;6227856;22;20007;-68
2023/09/20 01:55:57;;;;;;;6.60;2.65;;;;;;;15.30;93.08;100786.09;6277834;22;20022;-68
2023/09/20 01:58:23;;;;;;;8.20;2.90;;;;;;;15.25;93.43;100775.66;6251882;22;20112;-68
2023/09/20 02:00:52;;;;;;;7.15;2.70;;;;;;;15.29;93.22;100778.22;6277967;22;20007;-68
2023/09/20 02:03:18;;;;;;;7.72;2.58;;;;;;;15.24;93.77;100773.97;6252174;22;20007;-68
2023/09/20 02:05:46;;;;;;;6.47;2.83;;;;;;;15.29;93.39;100775.59;6227517;22;20011;-68
2023/09/20 02:08:11;;;;;;;6.50;2.60;;;;;;;15.26;93.81;100771.25;6251941;22;20011;-69
2023/09/20 02:10:38;;;;;;;6.25;2.30;;;;;;;15.27;93.86;100767.72;6227300;22;20010;-68
2023/09/20 02:13:04;;;;;;;6.40;2.30;;;;;;;15.32;93.35;100754.38;6277825;22;20306;-67
2023/09/20 02:15:35;;;;;;;8.85;3.05;;;;;;;15.36;93.51;100761.28;6277767;22;20007;-67
2023/09/20 02:18:05;;;;;;;7.60;2.60;;;;;;;15.40;93.28;100758.47;6277129;22;20367;-68
2023/09/20 02:20:34;;;;;;;6.78;2.55;;;;;;;15.40;93.48;100757.59;6252249;22;20044;-68
2023/09/20 02:23:00;;;;;;;8.65;3.03;;;;;;;15.45;93.52;100749.53;6228295;22;20007;-68
2023/09/20 02:25:26;;;;;;;7.63;2.75;;;;;;;15.48;93.27;100745.00;6252178;22;20011;-68
2023/09/20 02:27:54;;;;;;;5.70;2.40;;;;;;;15.56;92.68;100745.63;6277724;22;20022;-68
2023/09/20 02:30:24;;;;;;;8.23;2.83;;;;;;;15.57;93.21;100749.09;6252027;22;20011;-68
2023/09/20 02:32:51;;;;;;;;;;;;;;;15.70;92.07;100744.25;6253024;22;20014;-68
2023/09/20 02:35:16;;;;;;;6.93;2.47;;;;;;;15.65;92.51;100743.59;6277656;22;20320;-68
2023/09/20 02:37:43;;;;;;;7.45;2.75;;;;;;;15.65;93.13;100747.06;6228100;22;20014;-67
2023/09/20 02:40:13;;;;;;;7.38;2.90;;;;;;;15.69;92.83;100747.84;6280046;22;20011;-67
2023/09/20 02:42:43;;;;;;;9.98;2.67;;;;;;;15.75;92.66;100742.34;6255167;22;20399;-67
2023/09/20 02:45:09;;;;;;;9.98;3.15;;;;;;;15.73;93.04;100738.88;6279054;22;20045;-68
2023/09/20 02:47:34;;;;;;;12.10;2.83;;;;;;;15.75;92.86;100737.91;6252963;22;20015;-68
2023/09/20 02:50:01;;;;;;;9.25;3.13;;;;;;;15.81;92.53;100736.00;6254274;22;20086;-67
2023/09/20 02:52:26;;;;;;;9.38;2.42;;;;;;;15.92;91.55;100732.06;6228649;22;20395;-68
2023/09/20 02:54:51;;;;;;;6.68;2.85;;;;;;;15.87;91.94;100728.72;6228669;22;20011;-68
2023/09/20 02:57:17;;;;;;;8.63;2.97;;;;;;;15.89;92.01;100734.81;6228454;22;20004;-68
2023/09/20 02:59:42;;;;;;;6.68;2.40;;;;;;;15.87;91.89;100728.72;6280066;22;20007;-68
2023/09/20 03:02:10;;;;;;;6.88;2.47;;;;;;;15.93;91.46;100725.88;6252825;22;20018;-69
2023/09/20 03:04:37;;;;;;;7.30;2.75;;;;;;;15.94;91.29;100722.28;6229138;22;20143;-69
2023/09/20 03:07:06;;;;;;;6.70;2.50;;;;;;;15.90;91.68;100715.41;6253918;22;20144;-69
2023/09/20 03:09:36;;;;;;;6.55;3.05;;;;;;;15.87;91.47;100720.78;6254530;22;20086;-68
2023/09/20 03:12:05;;;;;;;7.68;2.78;;;;;;;15.83;92.18;100716.56;6279630;22;20025;-69
2023/09/20 03:14:33;;;;;;;6.60;3.28;;;;;;;15.80;92.46;100714.00;6254571;22;20463;-69
2023/09/20 03:17:00;;;;;;;6.72;2.92;;;;;;;15.80;92.51;100710.50;6278466;22;20482;-69
2023/09/20 03:19:26;;;;;;;6.55;2.67;;;;;;;15.80;92.19;100706.06;6278892;22;20010;-69
2023/09/20 03:21:51;;;;;;;7.75;2.95;;;;;;;15.76;92.86;100699.16;6278987;22;20548;-69
2023/09/20 03:24:17;;;;;;;5.05;2.60;;;;;;;15.74;92.86;100698.34;6228617;22;20007;-69
2023/09/20 03:26:42;;;;;;;8.90;2.83;;;;;;;15.81;92.42;100705.16;6278595;22;20019;-68
2023/09/20 03:29:08;;;;;;;5.50;2.60;;;;;;;15.78;92.55;100697.31;6254270;22;20094;-69
2023/09/20 03:31:33;;;;;;;6.30;3.10;;;;;;;15.72;92.72;100698.41;6252351;22;20306;-68
2023/09/20 03:34:03;;;;;;;6.20;2.63;;;;;;;15.64;93.33;100702.22;6279619;22;19999;-68
2023/09/20 03:36:28;;;;;;;7.15;2.63;;;;;;;15.56;93.91;100698.06;6278516;22;20013;-68
2023/09/20 03:38:57;;;;;;;9.65;2.60;;;;;;;15.52;94.13;100703.53;6253867;22;20077;-68
2023/09/20 03:41:25;;;;;;;10.23;2.72;;;;;;;15.48;94.48;100708.03;6253801;22;20018;-70
2023/09/20 03:43:51;;;;;;;8.73;2.85;;;;;;;15.44;94.26;100701.13;6253374;22;20007;-69
2023/09/20 03:46:18;;;;;;;6.80;2.50;;;;;;;15.38;94.81;100711.91;6277727;22;20019;-69
2023/09/20 03:48:44;;;;;;;7.93;2.70;;;;;;;15.33;95.31;100705.91;6254241;22;20065;-68
2023/09/20 03:51:15;;;;;;;6.60;2.60;;;;;;;15.33;95.37;100714.72;6253703;22;20433;-69
2023/09/20 03:53:43;;;;;;;11.75;3.20;;;;;;;15.20;96.15;100706.34;6279069;22;20465;-68
2023/09/20 03:56:11;;;;;;;6.75;2.95;;;;;;;15.23;95.83;100714.16;6253238;22;20433;-69
2023/09/20 03:58:37;;;;;;;7.53;2.75;;;;;;;15.19;96.35;100711.66;6229067;22;20436;-68
2023/09/20 04:01:03;;;;;;;9.68;2.75;;;;;;;15.11;96.94;100719.81;6253903;22;20074;-69
2023/09/20 04:03:29;;;;;;;6.38;2.58;;;;;;;15.12;97.06;100708.34;6251751;22;20011;-68
2023/09/20 04:05:57;;;;;;;9.32;3.22;;;;;;;15.09;96.93;100705.81;6253024;22;20007;-68
2023/09/20 04:08:23;;;;;;;7.93;2.55;;;;;;;15.02;97.36;100712.22;6278557;22;20011;-69
2023/09/20 04:10:48;;;;;;;7.25;2.90;;;;;;;15.02;97.35;100709.56;6253805;22;20020;-68
2023/09/20 04:13:17;;;;;;;6.50;2.92;;;;;;;15.11;97.04;100714.53;6279127;22;20110;-69
2023/09/20 04:15:44;;;;;;;7.20;2.72;;;;;;;15.03;97.60;100703.41;6253817;22;20086;-69
2023/09/20 04:18:13;;;;;;;6.95;2.75;;;;;;;14.97;97.79;100700.94;6276827;22;20003;-69
2023/09/20 04:20:39;;;;;;;8.52;2.90;;;;;;;14.97;97.91;100699.19;6253607;22;20008;-68
2023/09/20 04:23:05;;;;;;;7.15;2.85;;;;;;;14.90;98.81;100693.22;6278732;22;20456;-68
2023/09/20 04:25:31;;;;;;;7.15;2.83;;;;;;;14.88;98.70;100696.81;6227674;22;20003;-68
2023/09/20 04:27:57;;;;;;;6.63;2.95;;;;;;;14.98;98.33;100687.69;6227110;22;20011;-68
2023/09/20 04:30:23;;;;;;;6.95;2.78;;;;;;;14.95;98.56;100698.34;6251654;22;20038;-69
2023/09/20 04:32:49;;;;;;;7.60;2.80;;;;;;;14.94;98.68;100679.94;6227067;22;20003;-69
2023/09/20 04:35:14;;;;;;;6.65;2.63;;;;;;;15.00;98.39;100687.66;6227976;22;20022;-69
2023/09/20 04:37:40;;;;;;;8.32;2.97;;;;;;;14.98;98.61;100678.91;6250965;22;20007;-69
2023/09/20 04:40:09;;;;;;;6.95;2.92;;;;;;;14.98;98.86;100676.28;6252427;22;20014;-69
2023/09/20 04:42:35;;;;;;;7.43;2.92;;;;;;;15.01;98.60;100673.53;6227751;22;20031;-69
2023/09/20 04:45:07;;;;;;;5.05;2.70;;;;;;;15.00;98.57;100664.78;6253196;22;20012;-69
2023/09/20 04:47:35;;;;;;;9.85;2.85;;;;;;;15.02;98.60;100672.63;6251022;22;20379;-69
2023/09/20 04:50:02;;;;;;;8.73;2.90;;;;;;;14.99;98.79;100673.59;6278328;22;20076;-68
2023/09/20 04:52:27;;;;;;;5.90;2.58;;;;;;;15.03;98.72;100677.00;6252627;22;20014;-69
2023/09/20 04:54:54;;;;;;;7.28;2.90;;;;;;;15.03;98.81;100674.38;6251586;22;20007;-69
2023/09/20 04:57:20;;;;;;;4.95;2.63;;;;;;;14.99;98.94;100672.75;6305653;22;20379;-68
2023/09/20 04:59:45;;;;;;;8.10;3.08;;;;;;;15.04;98.42;100673.44;6252100;22;20011;-68
2023/09/20 05:02:13;;;;;;;8.52;2.47;;;;;;;15.02;98.61;100672.63;6250167;22;20017;-69
2023/09/20 05:04:38;;;;;;;6.22;2.20;;;;;;;14.95;99.29;100671.09;6253144;22;20011;-68
2023/09/20 05:07:07;;;;;;;4.85;2.60;;;;;;;15.00;98.94;100675.31;6227592;22;20337;-69
2023/09/20 05:09:36;;;;;;;6.22;2.80;;;;;;;14.94;99.28;100669.38;6277845;22;20014;-69
2023/09/20 05:12:03;;;;;;;5.38;2.50;;;;;;;14.99;99.00;100670.09;6252511;22;20011;-69
2023/09/20 05:14:29;;;;;;;7.00;2.80;;;;;;;15.02;98.62;100667.34;6276385;22;20003;-69
2023/09/20 05:16:55;;;;;;;7.97;2.53;;;;;;;14.95;99.05;100671.97;6251814;22;20031;-68
2023/09/20 05:19:23;;;;;;;7.57;2.58;;;;;;;14.93;99.38;100672.91;6278208;22;20003;-68
2023/09/20 05:21:57;;;;;;;6.90;2.83;;;;;;;14.94;99.50;100664.09;6277252;22;20003;-68
2023/09/20 05:24:23;;;;;;;6.85;2.75;;;;;;;14.98;99.55;100665.72;6274904;22;20065;-69
2023/09/20 05:26:50;;;;;;;3.28;2.28;;;;;;;14.99;99.29;100663.03;6249412;22;20334;-69
2023/09/20 05:29:16;;;;;;;7.13;2.80;;;;;;;14.96;99.74;100663.13;6275848;22;20011;-69
2023/09/20 05:31:41;;;;;;;7.55;3.15;;;;;;;14.96;99.76;100662.28;6250272;22;20014;-69
2023/09/20 05:34:06;;;;;;;7.38;2.63;;;;;;;14.94;99.99;100664.97;6277219;22;20011;-69
2023/09/20 05:36:53;;;;;;;6.22;2.92;;;;;;;15.03;99.82;100663.81;6251539;22;20433;-68
2023/09/20 05:39:18;;;;;;;6.43;2.67;;;;;;;14.93;100.00;100662.38;6251169;22;20007;-68
2023/09/20 05:41:44;;;;;;;7.82;2.70;;;;;;;15.07;99.28;100654.88;6277199;22;20007;-69
2023/09/20 05:44:13;;;;;;;6.93;2.58;;;;;;;15.11;99.12;100656.47;6277667;22;20007;-68
2023/09/20 05:46:38;;;;;;;6.25;2.45;;;;;;;15.10;99.26;100660.06;6270250;22;20020;-68
2023/09/20 05:49:04;;;;;;;6.95;2.45;;;;;;;15.04;99.66;100650.56;6247776;22;20054;-68
2023/09/20 05:51:30;;;;;;;4.63;2.75;;;;;;;15.14;99.36;100663.44;6246860;22;20034;-68
2023/09/20 05:53:55;;;;;;;5.88;2.55;;;;;;;15.21;98.67;100655.28;6247569;22;20018;-68
2023/09/20 05:56:21;;;;;;;8.07;3.13;;;;;;;15.25;98.57;100654.22;6247529;22;20023;-68
2023/09/20 05:58:46;;;;;;;7.25;2.97;;;;;;;15.30;98.97;100650.56;6247846;22;20306;-68
2023/09/20 06:01:13;;;;;;;6.05;2.40;;;;;;;15.37;98.01;100655.59;6221464;22;20008;-68
2023/09/20 06:03:39;;;;;;;7.80;2.55;;;;;;;15.34;98.60;100655.72;6246981;22;20030;-68
2023/09/20 06:06:07;;;;;;;6.05;2.40;;;;;;;15.48;97.95;100660.50;6245903;22;20007;-68
2023/09/20 06:08:34;;;;;;;6.88;2.53;;;;;;;16.10;95.74;100674.16;6222648;22;20007;-68
2023/09/20 06:11:04;;;;;;;4.50;2.33;;;;;;;16.88;90.74;100672.94;6272960;22;20065;-68
2023/09/20 06:13:32;;;;;;;5.95;2.20;;;;;;;17.45;86.75;100667.03;6250842;22;20015;-69
2023/09/20 06:15:58;;;;;;;6.32;2.35;;;;;;;18.21;82.54;100666.34;6274889;22;20015;-68
2023/09/20 06:18:24;;;;;;;6.07;2.42;;;;;;;18.56;79.89;100656.75;6249849;22;20287;-68
2023/09/20 06:20:51;;;;;;;5.80;2.58;;;;;;;18.25;79.89;100663.47;6251198;22;20008;-68
2023/09/20 06:23:18;;;;;;;4.28;2.05;;;;;;;17.80;82.76;100648.69;6251754;22;20090;-71
2023/09/20 06:25:49;;;;;;;5.63;2.40;;;;;;;18.02;82.78;100653.09;6276641;22;20303;-69
2023/09/20 06:28:15;;;;;;;8.40;2.22;;;;;;;18.28;81.49;100652.72;6251236;22;20491;-69
2023/09/20 06:30:43;;;;;;;5.28;2.30;;;;;;;18.81;79.03;100664.34;6251086;22;20018;-69
2023/09/20 06:33:09;;;;;;;5.18;2.10;;;;;;;19.11;77.12;100660.28;6226125;22;20018;-69
2023/09/20 06:35:41;;;;;;;6.40;2.10;;;;;;;19.45;76.18;100663.88;6276598;22;20011;-69
2023/09/20 06:38:09;;;;;;;4.93;1.95;;;;;;;19.88;73.75;100656.31;6275969;22;20008;-69
2023/09/20 06:40:39;;;;;;;5.70;2.20;;;;;;;19.99;73.15;100659.25;6276209;22;20090;-69
2023/09/20 06:43:07;;;;;;;4.93;1.90;;;;;;;20.20;72.14;100659.00;6276491;22;20046;-69
2023/09/20 06:45:33;;;;;;;3.97;2.20;;;;;;;19.76;73.27;100660.47;6276171;22;20119;-69
2023/09/20 06:47:59;;;;;;;6.25;2.10;;;;;;;19.18;75.42;100653.75;6277213;22;20015;-69
2023/09/20 06:50:24;;;;;;;3.70;2.15;;;;;;;18.78;77.30;100661.84;6250722;22;20487;-69
2023/09/20 06:52:51;;;;;;;5.05;2.00;;;;;;;19.27;77.24;100652.41;6276308;22;20015;-69
2023/09/20 06:55:17;;;;;;;7.00;2.58;;;;;;;19.55;75.00;100657.13;6251018;22;20004;-70
2023/09/20 06:57:43;;;;;;;4.95;1.88;;;;;;;20.44;72.32;100656.81;6250135;22;20396;-68
2023/09/20 07:02:49;;;;;;;5.25;2.10;;;;;;;21.55;66.92;100666.41;6251917;22;20019;-69
2023/09/20 07:05:15;;;;;;;4.43;1.80;;;;;;;21.15;67.23;100667.91;6276431;22;20007;-69
2023/09/20 07:07:42;;;;;;;4.53;1.60;;;;;;;21.74;65.92;100666.16;6225179;22;20015;-69
2023/09/20 07:10:09;;;;;;;5.35;1.63;;;;;;;21.73;65.86;100660.91;6275897;22;20004;-69
2023/09/20 07:12:36;;;;;;;3.85;1.63;;;;;;;21.70;65.32;100659.28;6249320;22;20007;-68
2023/09/20 07:15:02;;;;;;;4.28;1.80;;;;;;;21.05;67.63;100665.78;6225593;22;20019;-69
2023/09/20 07:17:27;;;;;;;3.28;1.40;;;;;;;20.78;69.22;100665.56;6249193;22;20310;-69
2023/09/20 07:19:52;;;;;;;4.07;2.10;;;;;;;20.41;70.50;100664.97;6251058;22;20011;-70
2023/09/20 07:22:18;;;;;;;3.28;1.52;;;;;;;20.30;71.11;100654.94;6276242;22;20008;-69
2023/09/20 07:24:45;;;;;;;5.38;1.90;;;;;;;20.31;71.40;100653.97;6273780;22;20012;-69
2023/09/20 07:27:12;;;;;;;5.10;1.90;;;;;;;19.94;72.37;100658.66;6275211;22;20007;-69
2023/09/20 07:29:38;;;;;;;3.30;1.63;;;;;;;19.61;72.79;100645.31;6224121;22;20361;-70
2023/09/20 07:32:04;;;;;;;5.07;2.13;;;;;;;19.20;75.10;100658.00;6273290;22;20010;-70
2023/09/20 07:34:33;;;;;;;5.10;2.17;;;;;;;18.83;77.50;100651.00;6248994;22;20437;-70
2023/09/20 07:36:59;;;;;;;5.45;1.88;;;;;;;18.98;77.85;100652.09;6249062;22;20012;-70
2023/09/20 07:39:25;;;;;;;4.78;1.90;;;;;;;19.15;78.57;100654.75;6274531;22;20053;-69
2023/09/20 07:41:51;;;;;;;5.28;1.90;;;;;;;19.52;77.08;100649.31;6248741;22;20441;-68
2023/09/20 07:44:17;;;;;;;4.82;2.05;;;;;;;20.04;75.50;100649.25;6274890;22;20003;-69
2023/09/20 07:46:43;;;;;;;4.68;1.90;;;;;;;19.91;73.98;100642.84;6272805;22;20016;-68
2023/09/20 07:49:10;;;;;;;3.15;1.70;;;;;;;19.60;74.99;100647.13;6274205;22;20043;-70
2023/09/20 07:51:39;;;;;;;6.35;2.00;;;;;;;19.22;75.99;100647.31;6248627;22;20070;-68
2023/09/20 07:54:09;;;;;;;7.63;2.17;;;;;;;19.16;78.11;100656.44;6274701;22;20061;-68
2023/09/20 07:56:34;;;;;;;5.18;2.08;;;;;;;19.12;77.46;100651.38;6248667;22;20019;-69
2023/09/20 07:59:00;;;;;;;5.47;2.08;;;;;;;18.95;78.47;100655.75;6274256;22;20030;-68
2023/09/20 08:01:29;;;;;;;3.42;1.88;;;;;;;18.90;78.71;100657.75;6222174;22;20062;-69
2023/09/20 08:03:58;;;;;;;4.28;2.17;;;;;;;18.84;79.25;100650.91;6224699;22;20480;-68
2023/09/20 08:06:36;;;;;;;7.50;2.20;;;;;;;19.03;78.80;100653.53;6273803;22;20000;-69
2023/09/20 08:09:03;;;;;;;6.90;2.30;;;;;;;19.15;79.42;100651.22;6247544;22;20007;-69
2023/09/20 08:11:29;;;;;;;6.70;2.28;;;;;;;19.17;78.28;100636.06;6273682;22;20461;-69
2023/09/20 08:13:57;;;;;;;6.78;2.20;;;;;;;19.13;77.85;100645.13;6273826;22;20000;-68
2023/09/20 08:16:24;;;;;;;4.53;1.98;;;;;;;19.07;78.02;100646.28;6247444;22;20007;-68
2023/09/20 08:21:35;;;;;;;4.95;2.30;;;;;;;18.94;78.89;100656.66;6273899;22;20045;-69
2023/09/20 09:00:00;;;;;;;5.95;2.45;;;;;;;19.83;73.74;100674.34;6258641;22;20034;-69
2023/09/20 09:02:27;;;;;;;6.22;2.78;;;;;;;19.62;73.55;100669.16;6245984;22;20022;-68
2023/09/20 09:04:54;;;;;;;4.88;2.35;;;;;;;19.55;75.58;100673.06;6250583;22;20094;-69
2023/09/20 09:07:23;;;;;;;5.13;2.60;;;;;;;19.77;76.86;100679.91;6277906;22;20440;-68
2023/09/20 09:09:51;;;;;;;4.43;2.65;;;;;;;19.76;75.54;100670.25;6278408;22;20010;-68
2023/09/20 09:12:16;;;;;;;6.40;2.78;;;;;;;19.69;75.24;100670.56;6252376;22;20003;-68
2023/09/20 09:14:42;;;;;;;5.80;2.92;;;;;;;19.61;76.74;100662.16;6240925;22;20058;-70
2023/09/20 09:17:09;;;;;;;6.07;2.50;;;;;;;19.60;76.78;100670.19;6191327;22;20012;-69
2023/09/20 09:19:37;;;;;;;5.68;2.63;;;;;;;19.49;78.36;100654.78;6191111;23;20070;-69
2023/09/20 09:22:03;;;;;;;6.72;2.40;;;;;;;19.46;78.49;100662.94;6192205;23;20454;-68
2023/09/20 09:24:43;;;;;;;6.18;2.53;;;;;;;19.35;78.18;100661.69;6186106;23;20016;-65
2023/09/20 09:27:09;;;;;;;3.75;2.33;;;;;;;19.20;78.79;100662.47;6217210;22;20091;-68
2023/09/20 09:29:35;;;;;;;7.75;2.83;;;;;;;19.11;79.15;100658.50;6165454;22;20058;-69
2023/09/20 09:32:01;;;;;;;6.13;2.92;;;;;;;19.12;79.46;100662.00;6191671;23;20020;-68
2023/09/20 09:34:27;;;;;;;7.43;2.80;;;;;;;19.07;80.75;100656.91;6215646;23;20027;-70
2023/09/20 09:36:55;;;;;;;5.32;2.53;;;;;;;19.01;79.36;100655.44;6215428;22;20019;-69
2023/09/20 09:41:48;;;;;;;4.90;2.35;;;;;;;19.11;81.68;100655.84;6228119;22;20508;-69
2023/09/20 09:44:15;;;;;;;8.27;2.38;;;;;;;19.28;79.37;100657.63;6177279;23;20378;-68
2023/09/20 09:51:52;;;;;;;4.32;2.13;;;;;;;19.41;78.46;100646.34;6239903;22;20024;-68
2023/09/20 09:54:21;;;;;;;4.82;2.20;;;;;;;19.42;78.48;100645.44;6199084;22;20260;-68
2023/09/20 10:01:55;;;;;;;3.22;2.20;;;;;;;19.73;76.80;100634.03;6236452;22;20385;-68
2023/09/20 10:04:21;;;;;;;4.00;2.17;;;;;;;19.83;77.16;100639.78;6174442;23;20111;-68
2023/09/20 10:06:57;;;;;;;3.78;2.33;;;;;;;19.84;77.01;100631.72;6191857;23;20016;-68
2023/09/20 10:09:27;;;;;;;5.72;2.30;;;;;;;19.89;77.77;100620.81;6186718;23;20012;-67
2023/09/20 10:11:53;;;;;;;3.70;1.88;;;;;;;19.83;76.86;100623.81;6212054;23;20009;-68
2023/09/20 10:14:22;;;;;;;4.88;2.17;;;;;;;19.80;76.11;100622.19;6162316;23;20027;-68
2023/09/20 10:16:48;;;;;;;4.57;2.20;;;;;;;19.79;76.49;100622.25;6185936;23;20099;-68
2023/09/20 10:19:14;;;;;;;6.47;2.22;;;;;;;19.84;76.40;100626.38;6186078;23;20013;-67
2023/09/20 10:21:59;;;;;;;3.10;1.90;;;;;;;19.93;77.55;100619.72;6161840;23;20015;-68
2023/09/20 10:24:29;;;;;;;3.97;1.70;;;;;;;19.81;76.25;100620.34;6211419;23;20421;-67
2023/09/20 10:27:03;;;;;;;4.90;1.90;;;;;;;19.90;76.34;100626.03;6161532;23;20011;-68
2023/09/20 10:29:32;;;;;;;4.00;1.80;;;;;;;20.02;76.29;100615.69;6212187;23;20083;-67
2023/09/20 10:32:13;;;;;;;5.15;1.52;;;;;;;20.37;76.10;100613.72;6211191;23;20001;-68
2023/09/20 10:34:39;;;;;;;5.03;2.08;;;;;;;20.78;75.28;100607.00;6136453;23;20012;-68
2023/09/20 10:37:10;;;;;;;4.32;1.70;;;;;;;20.86;74.56;100610.06;6209123;23;20320;-68
2023/09/20 10:39:38;;;;;;;3.05;1.70;;;;;;;20.98;75.03;100612.97;6186514;23;20015;-68
2023/09/20 10:42:14;;;;;;;4.22;1.90;;;;;;;21.10;73.96;100607.78;6213425;23;20000;-68
2023/09/20 10:44:42;;;;;;;5.10;1.98;;;;;;;21.14;72.73;100608.44;6186341;23;20035;-69
2023/09/20 10:47:16;;;;;;;4.22;1.40;;;;;;;21.25;71.82;100603.31;6210349;23;20008;-68
2023/09/20 10:49:50;;;;;;;4.10;1.65;;;;;;;21.24;72.68;100598.94;6161104;23;20020;-69
2023/09/20 10:52:30;;;;;;;3.03;1.50;;;;;;;21.36;72.29;100594.66;6186106;23;20015;-67
2023/09/20 10:55:20;;;;;;;3.53;1.42;;;;;;;21.32;70.98;100590.50;6186464;23;20009;-68
2023/09/20 10:57:46;;;;;;;4.73;1.50;;;;;;;21.19;71.80;100579.72;6168828;23;20038;-68
2023/09/20 11:00:22;;;;;;;2.83;1.25;;;;;;;21.17;70.16;100586.09;6213423;23;20008;-68
2023/09/20 11:02:52;;;;;;;3.92;1.23;;;;;;;21.08;68.70;100571.50;6186155;23;20071;-68
2023/09/20 11:05:18;;;;;;;3.83;1.15;;;;;;;21.02;70.70;100582.50;6140839;23;20016;-68
2023/09/20 11:07:43;;;;;;;3.53;1.40;;;;;;;20.95;72.23;100587.38;6186911;23;20016;-68
2023/09/20 11:10:13;;;;;;;5.28;1.42;;;;;;;21.02;72.11;100588.72;6161011;23;20435;-68
2023/09/20 11:12:43;;;;;;;3.38;1.10;;;;;;;20.95;69.93;100574.06;6214890;23;20004;-69
2023/09/20 11:15:09;;;;;;;4.32;1.60;;;;;;;20.98;71.78;100573.88;6212661;23;20001;-68
2023/09/20 11:17:35;;;;;;;2.67;1.30;;;;;;;20.94;70.60;100564.34;6187007;23;20024;-68
2023/09/20 11:20:00;;;;;;;3.60;1.17;;;;;;;20.96;72.35;100562.47;6163839;23;20016;-68
2023/09/20 11:22:26;;;;;;;3.58;1.20;;;;;;;21.02;69.74;100588.72;6188151;23;20076;-69
2023/09/20 11:24:55;;;;;;;4.85;1.75;;;;;;;20.93;71.83;100573.25;6162327;23;20095;-69
2023/09/20 11:27:21;;;;;;;3.70;1.35;;;;;;;20.78;72.15;100569.72;6213841;23;20342;-67
2023/09/20 11:29:49;;;;;;;5.10;1.30;;;;;;;20.71;72.15;100569.22;6188102;23;20017;-68
2023/09/20 11:32:16;;;;;;;2.80;1.20;;;;;;;20.67;71.24;100570.34;6162140;23;20015;-68
2023/09/20 11:34:50;;;;;;;2.83;1.30;;;;;;;20.77;70.98;100570.66;6162938;23;20044;-68
2023/09/20 11:37:20;;;;;;;4.18;1.40;;;;;;;20.73;70.78;100570.00;6163811;23;20158;-68
2023/09/20 11:39:46;;;;;;;3.42;1.08;;;;;;;20.77;71.72;100566.22;6213348;23;20330;-69
2023/09/20 11:42:26;;;;;;;4.45;1.42;;;;;;;20.87;71.64;100578.97;6162953;23;20095;-68
2023/09/20 11:45:16;;;;;;;2.80;1.10;;;;;;;20.69;70.77;100576.44;6213271;23;20071;-70
2023/09/20 11:47:42;;;;;;;3.35;1.58;;;;;;;20.54;69.59;100578.16;6211717;23;20015;-69
2023/09/20 11:50:14;;;;;;;2.17;1.20;;;;;;;20.43;71.16;100572.59;6187943;23;20008;-69
2023/09/20 11:52:45;;;;;;;2.72;1.17;;;;;;;20.35;72.06;100573.03;6212828;23;20063;-69
2023/09/20 11:55:12;;;;;;;4.40;1.17;;;;;;;20.31;70.05;100568.81;6187639;23;20058;-68
2023/09/20 11:57:42;;;;;;;2.95;1.23;;;;;;;20.32;70.70;100575.03;6163231;23;20009;-68
2023/09/20 12:00:11;;;;;;;2.35;1.30;;;;;;;20.39;70.85;100577.22;6188442;23;20303;-69
2023/09/20 12:02:38;;;;;;;3.78;1.30;;;;;;;20.31;72.29;100576.81;6186355;23;20032;-70
2023/09/20 12:05:04;;;;;;;4.68;1.48;;;;;;;20.32;71.04;100577.69;6163578;23;20052;-69
2023/09/20 12:07:29;;;;;;;3.92;1.20;;;;;;;20.52;72.63;100568.56;6162882;23;20016;-70
2023/09/20 12:09:55;;;;;;;3.78;1.30;;;;;;;20.64;73.28;100567.81;6187741;23;20009;-69
2023/09/20 12:12:20;;;;;;;3.30;1.40;;;;;;;20.59;70.24;100565.44;6163119;23;20096;-69
2023/09/20 12:14:46;;;;;;;3.00;1.30;;;;;;;20.69;70.47;100571.13;6138656;23;20067;-69
2023/09/20 12:17:12;;;;;;;2.40;1.30;;;;;;;20.72;69.37;100564.75;6161411;23;20108;-69
2023/09/20 12:19:38;;;;;;;2.28;1.27;;;;;;;20.66;71.45;100571.28;6138040;23;20012;-69